createdAt,value
2022-10-02T00:00:08.032Z,0
2022-10-02T00:01:08.116Z,0
2022-10-02T00:02:08.277Z,0
2022-10-02T00:03:07.975Z,0
2022-10-02T00:04:08.475Z,0
2022-10-02T00:05:08.232Z,0
2022-10-02T00:06:07.943Z,0
2022-10-02T00:07:07.669Z,0
2022-10-02T00:08:07.656Z,0
2022-10-02T00:09:08.163Z,0
2022-10-02T00:10:08.137Z,0
2022-10-02T00:11:07.866Z,0
2022-10-02T00:12:08.127Z,0
2022-10-02T00:13:07.852Z,0
2022-10-02T00:14:08.086Z,0
2022-10-02T00:15:08.086Z,0
2022-10-02T00:16:08.128Z,0
2022-10-02T00:17:08.305Z,0
2022-10-02T00:18:08.307Z,0
2022-10-02T00:19:08.284Z,0
2022-10-02T00:20:07.797Z,0
2022-10-02T00:21:07.768Z,0
2022-10-02T00:22:08.235Z,0
2022-10-02T00:23:07.973Z,0
2022-10-02T00:24:07.703Z,0
2022-10-02T00:25:08.192Z,0
2022-10-02T00:26:07.915Z,0
2022-10-02T00:27:07.652Z,0
2022-10-02T00:28:08.593Z,0
2022-10-02T00:29:07.618Z,0
2022-10-02T00:30:07.627Z,0
2022-10-02T00:31:07.864Z,0
2022-10-02T00:32:08.393Z,0
2022-10-02T00:33:07.317Z,0
2022-10-02T00:34:09.109Z,0
2022-10-02T00:35:07.309Z,0
2022-10-02T00:36:07.875Z,0
2022-10-02T00:37:07.790Z,0
2022-10-02T00:38:07.249Z,0
2022-10-02T00:39:07.481Z,0
2022-10-02T00:40:07.476Z,0
2022-10-02T00:41:07.720Z,0
2022-10-02T00:42:07.956Z,0
2022-10-02T00:43:07.681Z,0
2022-10-02T00:44:07.678Z,0
2022-10-02T00:45:07.405Z,0
2022-10-02T00:46:07.959Z,0
2022-10-02T00:47:07.643Z,0
2022-10-02T00:48:07.362Z,0
2022-10-02T00:49:07.348Z,0
2022-10-02T00:50:07.659Z,0
2022-10-02T00:51:07.872Z,0
2022-10-02T00:52:07.380Z,0
2022-10-02T00:53:07.861Z,0
2022-10-02T00:54:07.810Z,0
2022-10-02T00:55:07.272Z,0
2022-10-02T00:56:07.772Z,0
2022-10-02T00:57:07.523Z,0
2022-10-02T00:58:07.223Z,0
2022-10-02T00:59:07.472Z,0
2022-10-02T01:00:07.462Z,0
2022-10-02T01:01:07.747Z,0
2022-10-02T01:02:07.761Z,0
2022-10-02T01:03:07.414Z,0
2022-10-02T01:04:07.405Z,0
2022-10-02T01:05:07.142Z,0
2022-10-02T01:06:07.399Z,0
2022-10-02T01:07:07.609Z,0
2022-10-02T01:08:07.150Z,0
2022-10-02T01:09:07.356Z,0
2022-10-02T01:10:07.068Z,0
2022-10-02T01:11:07.305Z,0
2022-10-02T01:12:07.542Z,0
2022-10-02T01:13:07.033Z,0
2022-10-02T01:14:07.519Z,0
2022-10-02T01:15:07.066Z,0
2022-10-02T01:16:07.216Z,0
2022-10-02T01:17:07.490Z,0
2022-10-02T01:18:07.482Z,0
2022-10-02T01:19:06.936Z,0
2022-10-02T01:20:06.928Z,0
2022-10-02T01:21:06.921Z,0
2022-10-02T01:22:06.921Z,0
2022-10-02T01:23:07.135Z,0
2022-10-02T01:24:07.171Z,0
2022-10-02T01:25:07.403Z,0
2022-10-02T01:26:07.112Z,0
2022-10-02T01:27:07.086Z,0
2022-10-02T01:28:07.187Z,0
2022-10-02T01:29:06.813Z,0
2022-10-02T01:30:07.107Z,0
2022-10-02T01:31:06.781Z,0
2022-10-02T01:32:06.937Z,0
2022-10-02T01:33:07.031Z,0
2022-10-02T01:34:07.249Z,0
2022-10-02T01:35:39.057Z,0
2022-10-02T01:36:07.214Z,0
2022-10-02T01:37:06.702Z,0
2022-10-02T01:38:07.210Z,0
2022-10-02T01:39:07.180Z,0
2022-10-02T01:40:07.220Z,0
2022-10-02T01:41:07.181Z,0
2022-10-02T01:42:07.132Z,0
2022-10-02T01:43:06.623Z,0
2022-10-02T01:44:06.855Z,0
2022-10-02T01:45:06.597Z,0
2022-10-02T01:46:07.456Z,0
2022-10-02T01:47:06.352Z,0
2022-10-02T01:48:07.065Z,0
2022-10-02T01:49:06.540Z,0
2022-10-02T01:50:06.779Z,0
2022-10-02T01:51:06.504Z,0
2022-10-02T01:52:06.232Z,0
2022-10-02T01:53:06.471Z,0
2022-10-02T01:54:06.733Z,0
2022-10-02T01:55:06.700Z,0
2022-10-02T01:56:06.474Z,0
2022-10-02T01:57:06.699Z,0
2022-10-02T01:58:06.426Z,0
2022-10-02T01:59:06.386Z,0
2022-10-02T02:00:06.892Z,0
2022-10-02T02:01:06.633Z,0
2022-10-02T02:02:06.716Z,0
2022-10-02T02:03:06.856Z,0
2022-10-02T02:04:07.183Z,0
2022-10-02T02:05:06.932Z,0
2022-10-02T02:06:06.653Z,0
2022-10-02T02:07:07.403Z,0
2022-10-02T02:08:07.128Z,0
2022-10-02T02:09:09.370Z,0
2022-10-02T02:10:06.850Z,0
2022-10-02T02:11:06.835Z,0
2022-10-02T02:12:07.383Z,0
2022-10-02T02:13:06.832Z,0
2022-10-02T02:14:06.794Z,0
2022-10-02T02:15:07.337Z,0
2022-10-02T02:16:07.018Z,0
2022-10-02T02:17:07.177Z,0
2022-10-02T02:18:06.767Z,0
2022-10-02T02:19:06.979Z,0
2022-10-02T02:20:06.760Z,0
2022-10-02T02:21:06.948Z,0
2022-10-02T02:22:06.687Z,0
2022-10-02T02:23:06.463Z,0
2022-10-02T02:24:06.672Z,0
2022-10-02T02:25:06.921Z,0
2022-10-02T02:26:06.887Z,0
2022-10-02T02:27:07.122Z,0
2022-10-02T02:28:07.373Z,0
2022-10-02T02:29:06.866Z,0
2022-10-02T02:30:06.837Z,0
2022-10-02T02:31:07.056Z,0
2022-10-02T02:32:06.929Z,0
2022-10-02T02:33:06.534Z,0
2022-10-02T02:34:06.770Z,0
2022-10-02T02:35:06.758Z,0
2022-10-02T02:36:06.481Z,0
2022-10-02T02:37:06.724Z,0
2022-10-02T02:38:06.460Z,0
2022-10-02T02:39:06.437Z,0
2022-10-02T02:40:06.715Z,0
2022-10-02T02:41:06.707Z,0
2022-10-02T02:42:06.406Z,0
2022-10-02T02:43:06.644Z,0
2022-10-02T02:44:06.928Z,0
2022-10-02T02:45:06.721Z,0
2022-10-02T02:46:06.888Z,0
2022-10-02T02:47:06.073Z,0
2022-10-02T02:48:06.316Z,0
2022-10-02T02:49:06.813Z,0
2022-10-02T02:50:06.566Z,0
2022-10-02T02:51:06.537Z,0
2022-10-02T02:52:06.254Z,0
2022-10-02T02:53:06.245Z,0
2022-10-02T02:54:06.737Z,0
2022-10-02T02:55:06.475Z,0
2022-10-02T02:56:06.716Z,0
2022-10-02T02:57:06.466Z,0
2022-10-02T02:58:06.439Z,0
2022-10-02T02:59:06.161Z,0
2022-10-02T03:00:06.466Z,0
2022-10-02T03:01:06.928Z,0
2022-10-02T03:02:06.127Z,0
2022-10-02T03:03:06.105Z,0
2022-10-02T03:04:06.346Z,0
2022-10-02T03:05:06.613Z,0
2022-10-02T03:06:06.314Z,0
2022-10-02T03:07:06.299Z,0
2022-10-02T03:08:06.050Z,0
2022-10-02T03:09:06.019Z,0
2022-10-02T03:10:05.999Z,0
2022-10-02T03:11:06.513Z,0
2022-10-02T03:12:05.743Z,0
2022-10-02T03:13:06.243Z,0
2022-10-02T03:14:05.939Z,0
2022-10-02T03:15:06.187Z,0
2022-10-02T03:16:06.589Z,0
2022-10-02T03:17:06.178Z,0
2022-10-02T03:18:06.140Z,0
2022-10-02T03:19:06.141Z,0
2022-10-02T03:20:06.406Z,0
2022-10-02T03:21:05.844Z,0
2022-10-02T03:22:05.584Z,0
2022-10-02T03:23:05.824Z,0
2022-10-02T03:24:06.054Z,0
2022-10-02T03:25:05.532Z,0
2022-10-02T03:26:06.290Z,0
2022-10-02T03:27:05.512Z,0
2022-10-02T03:28:06.318Z,0
2022-10-02T03:29:06.991Z,0
2022-10-02T03:30:06.092Z,0
2022-10-02T03:31:05.974Z,0
2022-10-02T03:32:06.359Z,0
2022-10-02T03:49:49.119Z,0
2022-10-02T03:50:48.755Z,0
2022-10-02T03:51:48.984Z,0
2022-10-02T03:52:48.460Z,0
2022-10-02T03:53:48.951Z,0
2022-10-02T03:54:48.417Z,0
2022-10-02T03:55:48.651Z,0
2022-10-02T03:56:48.387Z,0
2022-10-02T03:57:48.646Z,0
2022-10-02T03:58:48.358Z,0
2022-10-02T03:59:48.847Z,0
2022-10-02T04:00:48.324Z,0
2022-10-02T04:01:53.986Z,0
2022-10-02T04:02:48.554Z,0
2022-10-02T04:03:48.849Z,0
2022-10-02T04:04:48.262Z,0
2022-10-02T04:05:48.863Z,0
2022-10-02T04:06:48.241Z,0
2022-10-02T04:07:53.857Z,0
2022-10-02T04:08:48.716Z,0
2022-10-02T04:09:48.438Z,0
2022-10-02T04:10:47.925Z,0
2022-10-02T04:11:48.154Z,0
2022-10-02T04:12:48.403Z,0
2022-10-02T04:13:48.396Z,0
2022-10-02T04:14:48.382Z,0
2022-10-02T04:15:48.299Z,0
2022-10-02T04:16:48.510Z,0
2022-10-02T04:17:48.079Z,0
2022-10-02T04:18:48.310Z,0
2022-10-02T04:19:48.571Z,0
2022-10-02T04:20:48.294Z,0
2022-10-02T04:21:48.643Z,0
2022-10-02T04:22:48.268Z,0
2022-10-02T04:23:48.241Z,0
2022-10-02T04:24:48.241Z,0
2022-10-02T04:25:48.222Z,0
2022-10-02T04:26:48.201Z,0
2022-10-02T04:27:48.077Z,0
2022-10-02T04:28:47.915Z,0
2022-10-02T04:29:48.166Z,0
2022-10-02T04:30:48.149Z,0
2022-10-02T04:31:48.088Z,0
2022-10-02T04:32:48.385Z,0
2022-10-02T04:33:47.859Z,0
2022-10-02T04:34:48.111Z,0
2022-10-02T04:35:48.073Z,0
2022-10-02T04:36:47.805Z,0
2022-10-02T04:37:48.409Z,0
2022-10-02T04:38:48.045Z,0
2022-10-02T04:39:53.038Z,0
2022-10-02T04:40:48.020Z,4
2022-10-02T04:41:48.256Z,0
2022-10-02T04:42:47.735Z,0
2022-10-02T04:43:47.716Z,4
2022-10-02T04:44:47.690Z,4
2022-10-02T04:45:47.970Z,4
2022-10-02T04:46:48.192Z,4
2022-10-02T04:47:47.671Z,4
2022-10-02T04:48:47.895Z,4
2022-10-02T04:49:47.882Z,4
2022-10-02T04:50:48.134Z,8
2022-10-02T04:51:47.607Z,8
2022-10-02T04:52:47.845Z,8
2022-10-02T04:53:48.192Z,12
2022-10-02T04:54:47.827Z,12
2022-10-02T04:55:47.559Z,16
2022-10-02T04:56:47.803Z,20
2022-10-02T04:57:47.774Z,24
2022-10-02T04:58:47.777Z,28
2022-10-02T04:59:47.507Z,28
2022-10-02T05:00:48.512Z,36
2022-10-02T05:01:48.021Z,40
2022-10-02T05:02:47.730Z,44
2022-10-02T05:03:47.707Z,52
2022-10-02T05:04:47.446Z,68
2022-10-02T05:05:47.417Z,80
2022-10-02T05:06:47.924Z,92
2022-10-02T05:07:47.907Z,108
2022-10-02T05:08:47.632Z,120
2022-10-02T05:09:47.975Z,132
2022-10-02T05:10:47.365Z,148
2022-10-02T05:11:47.855Z,164
2022-10-02T05:12:47.066Z,176
2022-10-02T05:13:47.311Z,192
2022-10-02T05:14:47.568Z,208
2022-10-02T05:15:47.486Z,224
2022-10-02T05:16:47.918Z,244
2022-10-02T05:17:47.264Z,260
2022-10-02T05:18:47.248Z,280
2022-10-02T05:19:47.511Z,296
2022-10-02T05:20:47.472Z,320
2022-10-02T05:21:46.958Z,336
2022-10-02T05:22:47.452Z,356
2022-10-02T05:23:47.699Z,368
2022-10-02T05:24:47.416Z,388
2022-10-02T05:25:47.756Z,412
2022-10-02T05:26:47.402Z,448
2022-10-02T05:27:47.207Z,488
2022-10-02T05:28:47.365Z,532
2022-10-02T05:29:47.357Z,560
2022-10-02T05:30:47.200Z,600
2022-10-02T05:31:47.817Z,660
2022-10-02T05:32:47.429Z,692
2022-10-02T05:33:53.073Z,716
2022-10-02T05:34:47.552Z,744
2022-10-02T05:35:47.647Z,756
2022-10-02T05:36:47.372Z,784
2022-10-02T05:37:47.359Z,676
2022-10-02T05:38:47.604Z,636
2022-10-02T05:39:47.081Z,772
2022-10-02T05:40:47.334Z,760
2022-10-02T05:41:47.820Z,884
2022-10-02T05:42:49.944Z,964
2022-10-02T05:43:47.028Z,908
2022-10-02T05:44:47.021Z,1072
2022-10-02T05:45:47.256Z,1144
2022-10-02T05:46:48.339Z,1436
2022-10-02T05:47:47.494Z,1612
2022-10-02T05:48:47.231Z,1700
2022-10-02T05:49:47.195Z,1972
2022-10-02T05:50:47.443Z,2004
2022-10-02T05:51:47.199Z,1904
2022-10-02T05:52:47.170Z,2004
2022-10-02T05:53:46.647Z,1960
2022-10-02T05:54:47.141Z,1952
2022-10-02T05:55:46.610Z,2108
2022-10-02T05:56:46.859Z,2096
2022-10-02T05:57:47.534Z,2240
2022-10-02T05:58:47.102Z,2444
2022-10-02T05:59:46.562Z,2564
2022-10-02T06:00:47.187Z,2816
2022-10-02T06:01:47.301Z,2860
2022-10-02T06:02:47.438Z,2332
2022-10-02T06:03:47.025Z,2192
2022-10-02T06:04:47.017Z,2196
2022-10-02T06:05:46.987Z,2420
2022-10-02T06:06:47.273Z,2376
2022-10-02T06:07:46.979Z,2480
2022-10-02T06:08:47.221Z,2536
2022-10-02T06:09:46.938Z,2660
2022-10-02T06:10:46.932Z,2692
2022-10-02T06:11:46.923Z,2776
2022-10-02T06:12:47.174Z,2752
2022-10-02T06:13:47.283Z,2756
2022-10-02T06:14:52.821Z,2740
2022-10-02T06:15:47.137Z,2824
2022-10-02T06:16:47.649Z,2876
2022-10-02T06:17:47.108Z,2952
2022-10-02T06:18:46.827Z,3020
2022-10-02T06:19:46.308Z,3048
2022-10-02T06:20:47.066Z,3084
2022-10-02T06:21:46.539Z,3124
2022-10-02T06:22:46.783Z,3156
2022-10-02T06:23:46.769Z,3208
2022-10-02T06:24:46.509Z,3224
2022-10-02T06:25:46.754Z,3224
2022-10-02T06:26:47.053Z,3176
2022-10-02T06:27:46.517Z,3008
2022-10-02T06:28:46.540Z,2748
2022-10-02T06:29:47.077Z,2420
2022-10-02T06:30:46.429Z,2220
2022-10-02T06:31:46.689Z,2144
2022-10-02T06:32:46.413Z,2136
2022-10-02T06:33:46.396Z,2200
2022-10-02T06:34:52.184Z,2368
2022-10-02T06:35:46.629Z,2508
2022-10-02T06:36:46.998Z,2592
2022-10-02T06:37:46.639Z,2620
2022-10-02T06:38:46.331Z,2724
2022-10-02T06:39:46.319Z,2928
2022-10-02T06:40:46.570Z,3156
2022-10-02T06:41:46.555Z,3344
2022-10-02T06:42:46.553Z,3500
2022-10-02T06:43:46.538Z,3488
2022-10-02T06:44:46.535Z,3312
2022-10-02T06:45:47.132Z,3272
2022-10-02T06:46:51.229Z,3320
2022-10-02T06:47:46.478Z,3292
2022-10-02T06:48:46.733Z,3456
2022-10-02T06:49:46.475Z,3644
2022-10-02T06:50:46.185Z,3936
2022-10-02T06:51:46.440Z,4100
2022-10-02T06:52:46.437Z,3936
2022-10-02T06:53:46.413Z,3372
2022-10-02T06:54:46.402Z,3244
2022-10-02T06:55:46.399Z,2964
2022-10-02T06:56:46.835Z,2724
2022-10-02T06:57:46.108Z,2548
2022-10-02T06:58:46.614Z,2456
2022-10-02T06:59:46.102Z,2380
2022-10-02T07:00:46.512Z,2344
2022-10-02T07:01:46.889Z,2304
2022-10-02T07:02:46.310Z,2252
2022-10-02T07:03:45.781Z,2252
2022-10-02T07:04:46.302Z,2360
2022-10-02T07:05:46.282Z,2560
2022-10-02T07:06:47.024Z,2936
2022-10-02T07:07:46.515Z,3300
2022-10-02T07:08:45.978Z,3604
2022-10-02T07:09:45.978Z,3872
2022-10-02T07:10:46.216Z,4256
2022-10-02T07:11:46.204Z,4540
2022-10-02T07:12:46.458Z,4816
2022-10-02T07:13:45.937Z,5088
2022-10-02T07:14:46.429Z,5656
2022-10-02T07:15:46.164Z,6060
2022-10-02T07:16:47.129Z,6328
2022-10-02T07:17:46.496Z,6636
2022-10-02T07:18:46.390Z,6964
2022-10-02T07:19:46.147Z,6884
2022-10-02T07:20:46.383Z,6228
2022-10-02T07:21:46.108Z,5472
2022-10-02T07:22:52.279Z,5348
2022-10-02T07:23:46.342Z,5616
2022-10-02T07:24:46.077Z,6096
2022-10-02T07:25:46.046Z,6492
2022-10-02T07:26:46.599Z,6668
2022-10-02T07:27:45.788Z,6924
2022-10-02T07:28:45.778Z,6972
2022-10-02T07:29:46.274Z,6840
2022-10-02T07:30:45.748Z,6240
2022-10-02T07:31:46.406Z,5484
2022-10-02T07:32:45.981Z,5084
2022-10-02T07:33:46.351Z,5064
2022-10-02T07:34:45.523Z,5288
2022-10-02T07:35:45.688Z,5400
2022-10-02T07:36:46.425Z,5432
2022-10-02T07:37:45.923Z,5236
2022-10-02T07:38:46.021Z,5256
2022-10-02T07:39:46.165Z,5544
2022-10-02T07:40:45.909Z,5720
2022-10-02T07:41:46.245Z,5716
2022-10-02T07:42:46.500Z,5708
2022-10-02T07:43:46.485Z,5896
2022-10-02T07:44:46.213Z,5968
2022-10-02T07:45:46.701Z,5612
2022-10-02T07:46:46.522Z,5164
2022-10-02T07:47:46.181Z,4736
2022-10-02T07:48:46.177Z,4860
2022-10-02T07:49:46.764Z,5588
2022-10-02T07:50:46.669Z,6412
2022-10-02T07:51:46.143Z,6360
2022-10-02T07:52:46.139Z,5492
2022-10-02T07:53:46.384Z,4888
2022-10-02T07:54:46.113Z,4756
2022-10-02T07:55:46.134Z,4564
2022-10-02T07:56:46.562Z,4352
2022-10-02T07:57:46.602Z,4320
2022-10-02T07:58:46.069Z,4240
2022-10-02T07:59:46.715Z,4572
2022-10-02T08:00:46.307Z,5068
2022-10-02T08:01:46.778Z,4152
2022-10-02T08:02:46.326Z,3464
2022-10-02T08:03:46.615Z,3152
2022-10-02T08:04:46.739Z,2956
2022-10-02T08:05:47.341Z,3284
2022-10-02T08:06:46.981Z,3912
2022-10-02T08:07:46.954Z,4516
2022-10-02T08:08:46.978Z,5036
2022-10-02T08:09:46.694Z,5472
2022-10-02T08:10:46.668Z,5932
2022-10-02T08:11:52.194Z,5384
2022-10-02T08:12:46.894Z,5188
2022-10-02T08:13:46.905Z,5036
2022-10-02T08:14:47.144Z,4996
2022-10-02T08:15:46.618Z,5008
2022-10-02T08:16:48.104Z,4884
2022-10-02T08:17:46.865Z,5908
2022-10-02T08:18:46.845Z,6524
2022-10-02T08:19:46.840Z,7716
2022-10-02T08:20:47.076Z,8552
2022-10-02T08:21:47.182Z,8432
2022-10-02T08:22:47.058Z,7960
2022-10-02T08:23:46.547Z,7016
2022-10-02T08:24:46.521Z,5760
2022-10-02T08:25:46.522Z,5404
2022-10-02T08:26:47.318Z,5376
2022-10-02T08:27:46.555Z,5528
2022-10-02T08:28:46.741Z,5636
2022-10-02T08:29:46.741Z,5640
2022-10-02T08:30:46.211Z,5524
2022-10-02T08:31:47.069Z,5656
2022-10-02T08:32:46.971Z,5752
2022-10-02T08:33:46.933Z,6184
2022-10-02T08:34:46.682Z,7016
2022-10-02T08:35:46.687Z,7328
2022-10-02T08:36:46.637Z,7020
2022-10-02T08:37:47.033Z,6568
2022-10-02T08:38:46.395Z,6560
2022-10-02T08:39:46.788Z,6820
2022-10-02T08:40:46.639Z,7100
2022-10-02T08:41:46.627Z,6940
2022-10-02T08:42:46.867Z,6572
2022-10-02T08:43:46.610Z,6388
2022-10-02T08:44:46.606Z,6484
2022-10-02T08:45:47.107Z,6968
2022-10-02T08:46:46.926Z,7520
2022-10-02T08:47:46.563Z,7356
2022-10-02T08:48:46.554Z,6696
2022-10-02T08:49:46.570Z,4632
2022-10-02T08:50:46.553Z,4736
2022-10-02T08:51:46.787Z,5132
2022-10-02T08:52:46.262Z,5308
2022-10-02T08:53:47.004Z,5680
2022-10-02T08:54:46.241Z,6928
2022-10-02T08:55:46.257Z,6772
2022-10-02T08:56:46.559Z,6932
2022-10-02T08:57:46.733Z,7544
2022-10-02T08:58:46.472Z,7660
2022-10-02T08:59:46.642Z,7552
2022-10-02T09:00:46.824Z,7376
2022-10-02T09:01:46.260Z,7456
2022-10-02T09:02:46.498Z,7860
2022-10-02T09:03:46.175Z,8644
2022-10-02T09:04:45.901Z,8860
2022-10-02T09:05:46.173Z,8752
2022-10-02T09:06:45.947Z,9200
2022-10-02T09:07:45.877Z,9036
2022-10-02T09:08:46.366Z,8908
2022-10-02T09:09:46.779Z,7780
2022-10-02T09:10:46.613Z,7936
2022-10-02T09:11:46.352Z,8032
2022-10-02T09:12:46.334Z,8392
2022-10-02T09:13:46.327Z,8120
2022-10-02T09:14:46.588Z,7680
2022-10-02T09:15:46.313Z,8216
2022-10-02T09:16:47.152Z,9332
2022-10-02T09:17:46.558Z,8648
2022-10-02T09:18:46.031Z,8116
2022-10-02T09:19:46.278Z,8380
2022-10-02T09:20:46.273Z,7424
2022-10-02T09:21:46.000Z,7092
2022-10-02T09:22:45.997Z,7040
2022-10-02T09:23:46.239Z,6500
2022-10-02T09:24:46.227Z,6388
2022-10-02T09:25:46.583Z,6116
2022-10-02T09:26:46.604Z,5644
2022-10-02T09:27:45.943Z,5864
2022-10-02T09:28:46.453Z,5716
2022-10-02T09:29:46.186Z,4880
2022-10-02T09:30:46.453Z,4988
2022-10-02T09:31:46.434Z,5952
2022-10-02T09:32:45.909Z,6108
2022-10-02T09:33:45.643Z,5608
2022-10-02T09:34:46.160Z,5632
2022-10-02T09:35:46.402Z,5676
2022-10-02T09:36:46.472Z,5860
2022-10-02T09:37:46.119Z,6396
2022-10-02T09:38:46.364Z,6428
2022-10-02T09:39:46.100Z,6484
2022-10-02T09:40:45.896Z,6848
2022-10-02T09:41:46.549Z,7024
2022-10-02T09:42:46.339Z,6508
2022-10-02T09:43:45.561Z,6600
2022-10-02T09:44:46.320Z,7084
2022-10-02T09:45:46.668Z,6428
2022-10-02T09:46:46.297Z,6768
2022-10-02T09:47:46.299Z,6712
2022-10-02T09:48:45.772Z,6928
2022-10-02T09:49:46.273Z,6676
2022-10-02T09:50:45.746Z,7364
2022-10-02T09:51:45.748Z,7972
2022-10-02T09:52:49.832Z,8936
2022-10-02T09:53:46.721Z,9212
2022-10-02T09:54:46.198Z,9136
2022-10-02T09:55:46.204Z,8584
2022-10-02T09:56:46.596Z,8356
2022-10-02T09:57:46.782Z,8736
2022-10-02T09:58:46.682Z,9348
2022-10-02T09:59:46.764Z,9820
2022-10-02T10:00:46.376Z,9736
2022-10-02T10:01:47.801Z,9344
2022-10-02T10:02:46.641Z,9136
2022-10-02T10:03:46.423Z,8940
2022-10-02T10:05:11.549Z,10216
2022-10-02T10:05:46.619Z,10416
2022-10-02T10:06:47.164Z,9924
2022-10-02T10:07:46.093Z,9104
2022-10-02T10:08:46.340Z,9560
2022-10-02T10:09:46.125Z,8860
2022-10-02T10:10:46.321Z,8084
2022-10-02T10:11:46.820Z,7156
2022-10-02T10:12:46.563Z,6044
2022-10-02T10:13:46.673Z,6356
2022-10-02T10:14:46.978Z,7240
2022-10-02T10:15:46.990Z,7704
2022-10-02T10:16:46.491Z,7048
2022-10-02T10:17:46.452Z,6440
2022-10-02T10:18:46.715Z,6160
2022-10-02T10:19:46.701Z,6064
2022-10-02T10:20:46.681Z,6824
2022-10-02T10:21:47.319Z,7772
2022-10-02T10:22:46.934Z,8228
2022-10-02T10:23:46.661Z,7724
2022-10-02T10:24:46.135Z,7604
2022-10-02T10:25:46.121Z,7440
2022-10-02T10:26:46.622Z,6828
2022-10-02T10:27:46.922Z,6168
2022-10-02T10:28:46.361Z,6220
2022-10-02T10:29:46.960Z,6860
2022-10-02T10:30:46.597Z,7244
2022-10-02T10:31:47.787Z,7324
2022-10-02T10:32:46.328Z,7604
2022-10-02T10:33:46.863Z,7516
2022-10-02T10:34:46.555Z,7084
2022-10-02T10:35:46.297Z,6528
2022-10-02T10:36:51.440Z,6280
2022-10-02T10:37:46.538Z,6748
2022-10-02T10:38:46.528Z,5692
2022-10-02T10:39:46.263Z,5056
2022-10-02T10:40:46.250Z,5640
2022-10-02T10:41:46.790Z,6624
2022-10-02T10:43:18.144Z,6308
2022-10-02T10:43:46.483Z,6348
2022-10-02T10:44:46.478Z,6100
2022-10-02T10:45:47.029Z,6288
2022-10-02T10:46:46.209Z,7156
2022-10-02T10:47:46.460Z,7692
2022-10-02T10:48:52.332Z,7440
2022-10-02T10:49:46.431Z,7956
2022-10-02T10:50:46.693Z,8896
2022-10-02T10:51:46.884Z,9028
2022-10-02T10:52:46.416Z,8744
2022-10-02T10:53:46.412Z,8548
2022-10-02T10:54:46.398Z,7960
2022-10-02T10:55:46.141Z,7528
2022-10-02T10:56:46.135Z,6272
2022-10-02T10:57:46.374Z,6776
2022-10-02T10:58:46.503Z,6536
2022-10-02T10:59:46.496Z,6760
2022-10-02T11:00:47.011Z,6148
2022-10-02T11:01:47.689Z,6224
2022-10-02T11:02:46.645Z,6532
2022-10-02T11:03:46.468Z,7056
2022-10-02T11:04:46.198Z,7576
2022-10-02T11:05:46.194Z,8120
2022-10-02T11:06:52.457Z,8232
2022-10-02T11:07:46.425Z,8456
2022-10-02T11:08:46.678Z,8784
2022-10-02T11:09:46.424Z,9064
2022-10-02T11:10:46.417Z,9108
2022-10-02T11:11:47.002Z,8848
2022-10-02T11:12:46.132Z,8300
2022-10-02T11:13:46.369Z,7736
2022-10-02T11:14:46.631Z,7468
2022-10-02T11:15:46.364Z,7376
2022-10-02T11:16:46.471Z,7460
2022-10-02T11:17:46.697Z,7628
2022-10-02T11:18:46.334Z,7988
2022-10-02T11:19:46.756Z,8436
2022-10-02T11:20:46.583Z,8744
2022-10-02T11:21:46.474Z,8828
2022-10-02T11:22:46.308Z,8720
2022-10-02T11:23:46.563Z,8440
2022-10-02T11:24:45.780Z,7980
2022-10-02T11:25:46.532Z,7416
2022-10-02T11:26:46.271Z,7464
2022-10-02T11:27:46.092Z,8068
2022-10-02T11:28:46.249Z,8816
2022-10-02T11:29:46.075Z,9364
2022-10-02T11:30:48.480Z,9588
2022-10-02T11:31:47.030Z,9512
2022-10-02T11:32:45.712Z,9296
2022-10-02T11:33:46.558Z,8944
2022-10-02T11:34:46.203Z,8612
2022-10-02T11:35:46.197Z,8540
2022-10-02T11:36:45.948Z,8648
2022-10-02T11:37:46.187Z,8916
2022-10-02T11:38:45.913Z,9268
2022-10-02T11:39:46.473Z,9668
2022-10-02T11:40:46.172Z,9944
2022-10-02T11:41:46.421Z,9840
2022-10-02T11:42:46.130Z,9876
2022-10-02T11:43:50.339Z,10040
2022-10-02T11:44:46.127Z,10168
2022-10-02T11:45:46.056Z,10332
2022-10-02T11:46:46.095Z,10500
2022-10-02T11:47:46.371Z,10588
2022-10-02T11:48:45.836Z,10676
2022-10-02T11:49:46.608Z,10584
2022-10-02T11:50:46.346Z,10460
2022-10-02T11:51:46.714Z,10304
2022-10-02T11:52:52.139Z,10160
2022-10-02T11:53:45.811Z,10028
2022-10-02T11:54:46.291Z,9912
2022-10-02T11:55:45.533Z,9752
2022-10-02T11:56:46.031Z,9548
2022-10-02T11:57:46.280Z,9440
2022-10-02T11:58:46.272Z,9328
2022-10-02T11:59:45.583Z,9128
2022-10-02T12:00:45.992Z,9012
2022-10-02T12:01:46.035Z,8992
2022-10-02T12:02:46.618Z,9300
2022-10-02T12:03:46.514Z,9716
2022-10-02T12:04:45.998Z,9576
2022-10-02T12:05:46.592Z,9216
2022-10-02T12:06:46.242Z,9084
2022-10-02T12:07:46.486Z,8812
2022-10-02T12:08:46.487Z,8564
2022-10-02T12:09:46.226Z,8440
2022-10-02T12:10:46.463Z,8052
2022-10-02T12:11:46.812Z,7536
2022-10-02T12:12:46.190Z,6824
2022-10-02T12:13:45.922Z,6584
2022-10-02T12:14:46.166Z,7128
2022-10-02T12:15:46.164Z,6996
2022-10-02T12:16:46.218Z,7068
2022-10-02T12:17:45.643Z,6400
2022-10-02T12:18:46.135Z,5404
2022-10-02T12:19:46.134Z,5484
2022-10-02T12:20:46.139Z,6704
2022-10-02T12:21:47.025Z,6676
2022-10-02T12:22:46.364Z,6612
2022-10-02T12:23:46.100Z,6696
2022-10-02T12:24:45.839Z,6224
2022-10-02T12:25:45.579Z,5116
2022-10-02T12:26:46.334Z,4532
2022-10-02T12:27:46.133Z,4484
2022-10-02T12:28:46.314Z,4568
2022-10-02T12:29:46.058Z,4672
2022-10-02T12:30:45.786Z,5616
2022-10-02T12:31:47.092Z,6408
2022-10-02T12:32:45.526Z,6284
2022-10-02T12:33:46.273Z,5168
2022-10-02T12:34:46.271Z,5368
2022-10-02T12:35:45.743Z,5108
2022-10-02T12:36:45.987Z,4480
2022-10-02T12:37:46.349Z,3976
2022-10-02T12:38:45.978Z,3508
2022-10-02T12:39:46.083Z,4388
2022-10-02T12:40:45.968Z,4264
2022-10-02T12:41:46.120Z,3572
2022-10-02T12:42:45.696Z,3272
2022-10-02T12:43:45.422Z,3484
2022-10-02T12:44:46.181Z,3348
2022-10-02T12:45:46.151Z,3352
2022-10-02T12:46:45.914Z,3572
2022-10-02T12:47:45.641Z,3260
2022-10-02T12:48:45.907Z,3424
2022-10-02T12:49:46.022Z,4124
2022-10-02T12:50:45.615Z,5320
2022-10-02T12:51:46.502Z,5568
2022-10-02T12:52:45.609Z,4988
2022-10-02T12:53:46.205Z,5284
2022-10-02T12:54:45.838Z,4392
2022-10-02T12:55:45.565Z,4060
2022-10-02T12:56:46.086Z,4896
2022-10-02T12:57:46.451Z,4384
2022-10-02T12:58:45.286Z,3796
2022-10-02T12:59:45.605Z,3748
2022-10-02T13:00:45.892Z,4524
2022-10-02T13:01:46.592Z,5560
2022-10-02T13:03:07.532Z,5592
2022-10-02T13:03:46.015Z,5616
2022-10-02T13:04:45.509Z,5792
2022-10-02T13:05:50.324Z,5948
2022-10-02T13:06:45.486Z,5856
2022-10-02T13:07:45.468Z,5452
2022-10-02T13:08:45.985Z,4892
2022-10-02T13:09:46.165Z,5120
2022-10-02T13:10:45.702Z,5140
2022-10-02T13:11:46.564Z,4408
2022-10-02T13:12:45.938Z,4428
2022-10-02T13:13:45.925Z,4964
2022-10-02T13:14:45.410Z,5948
2022-10-02T13:15:45.403Z,7100
2022-10-02T13:16:45.863Z,7152
2022-10-02T13:17:45.390Z,7496
2022-10-02T13:18:45.642Z,8584
2022-10-02T13:19:45.981Z,7772
2022-10-02T13:20:45.614Z,5824
2022-10-02T13:21:46.271Z,4392
2022-10-02T13:22:45.864Z,4456
2022-10-02T13:23:48.560Z,3584
2022-10-02T13:24:45.833Z,3560
2022-10-02T13:25:45.921Z,2692
2022-10-02T13:26:45.312Z,2632
2022-10-02T13:27:45.569Z,2672
2022-10-02T13:28:45.550Z,3544
2022-10-02T13:29:45.541Z,2996
2022-10-02T13:30:45.547Z,3076
2022-10-02T13:31:46.519Z,3324
2022-10-02T13:32:45.262Z,3236
2022-10-02T13:33:45.502Z,3228
2022-10-02T13:34:45.705Z,2964
2022-10-02T13:35:45.772Z,2808
2022-10-02T13:36:45.221Z,1840
2022-10-02T13:37:45.472Z,1092
2022-10-02T13:38:45.455Z,876
2022-10-02T13:39:44.988Z,1064
2022-10-02T13:40:45.182Z,1280
2022-10-02T13:41:46.515Z,1488
2022-10-02T13:42:45.174Z,1716
2022-10-02T13:43:45.424Z,2396
2022-10-02T13:44:44.894Z,2948
2022-10-02T13:45:45.654Z,2656
2022-10-02T13:46:45.146Z,2000
2022-10-02T13:47:45.379Z,1284
2022-10-02T13:48:45.112Z,916
2022-10-02T13:49:45.111Z,1168
2022-10-02T13:50:45.101Z,1836
2022-10-02T13:51:45.771Z,3244
2022-10-02T13:52:44.823Z,4548
2022-10-02T13:53:44.814Z,5176
2022-10-02T13:54:45.067Z,4508
2022-10-02T13:55:45.307Z,4568
2022-10-02T13:56:45.299Z,4732
2022-10-02T13:57:45.641Z,4320
2022-10-02T13:58:45.354Z,3768
2022-10-02T13:59:45.030Z,3216
2022-10-02T14:00:45.382Z,2812
2022-10-02T14:01:45.676Z,2860
2022-10-02T14:02:45.251Z,2696
2022-10-02T14:03:45.376Z,2312